Time;durP1;ratioP1;P1;durP2;ratioP2;P2;SDS_P1;SDS_P2;PMS_P1;PMS_P2;Temp;Humidity;BMP_temperature;BMP_pressure;BME280_temperature;BME280_humidity;BME280_pressure;Samples;Min_cycle;Max_cycle;Signal;HPM_P1;HPM_P2
2023/05/23 03:00:21;;;;;;;36.63;33.07;;;16.50;99.90;;;;;;5969115;23;20289;-72
2023/05/23 03:02:47;;;;;;;30.30;27.17;;;16.50;99.90;;;;;;4987701;28;20295;-73
2023/05/23 03:05:13;;;;;;;30.43;27.63;;;16.60;99.90;;;;;;4974342;28;20647;-73
2023/05/23 03:07:38;;;;;;;34.93;29.13;;;16.60;99.90;;;;;;4991376;28;20295;-73
2023/05/23 03:10:05;;;;;;;31.10;28.20;;;16.60;99.90;;;;;;4974306;28;20251;-73
2023/05/23 03:12:31;;;;;;;29.73;26.97;;;16.60;99.90;;;;;;4972702;28;20219;-74
2023/05/23 03:14:57;;;;;;;35.20;31.90;;;16.70;99.90;;;;;;4947167;28;20221;-73
2023/05/23 03:17:24;;;;;;;45.13;41.13;;;16.70;99.90;;;;;;4948568;28;20236;-73
2023/05/23 03:19:50;;;;;;;46.37;42.50;;;16.70;99.90;;;;;;4953806;28;20228;-73
2023/05/23 03:22:16;;;;;;;48.97;45.17;;;16.70;99.90;;;;;;4965289;28;20236;-73
2023/05/23 03:24:42;;;;;;;58.67;54.20;;;16.70;99.90;;;;;;4948919;28;20677;-73
2023/05/23 03:27:08;;;;;;;59.90;55.47;;;16.70;99.90;;;;;;4971667;28;20193;-73
2023/05/23 03:29:34;;;;;;;72.17;67.23;;;16.70;99.90;;;;;;4963935;28;20185;-73
2023/05/23 03:32:00;;;;;;;107.57;100.47;;;16.80;99.90;;;;;;4969573;28;20217;-73
2023/05/23 03:34:26;;;;;;;107.83;100.90;;;16.70;99.90;;;;;;4970172;28;20639;-74
2023/05/23 03:36:52;;;;;;;91.90;85.87;;;16.80;99.90;;;;;;4965220;28;20610;-73
2023/05/23 03:39:18;;;;;;;89.80;83.53;;;16.80;99.90;;;;;;4971946;28;20212;-74
2023/05/23 03:41:44;;;;;;;97.50;90.83;;;16.90;99.90;;;;;;4971776;28;20224;-74
2023/05/23 03:44:09;;;;;;;144.10;134.13;;;16.90;99.90;;;;;;4966224;28;20211;-73
2023/05/23 03:46:35;;;;;;;140.17;131.27;;;16.90;99.90;;;;;;4954837;28;20243;-74
2023/05/23 03:49:01;;;;;;;137.57;128.40;;;17.00;99.90;;;;;;4954396;28;20216;-73
2023/05/23 03:51:27;;;;;;;142.10;132.97;;;17.00;99.90;;;;;;4971719;28;20213;-73
2023/05/23 03:53:53;;;;;;;147.03;137.50;;;17.00;99.90;;;;;;4966250;28;20186;-74
2023/05/23 03:56:19;;;;;;;154.87;144.97;;;17.00;99.90;;;;;;4954613;28;20192;-75
2023/05/23 03:58:45;;;;;;;162.77;152.27;;;17.00;99.90;;;;;;4971179;28;20181;-75
2023/05/23 04:01:10;;;;;;;159.53;149.10;;;17.10;99.90;;;;;;4971643;28;20568;-75
2023/05/23 04:03:37;;;;;;;143.57;133.70;;;17.10;99.90;;;;;;4966308;28;20203;-74
2023/05/23 04:06:03;;;;;;;151.50;141.27;;;17.10;99.90;;;;;;4956149;28;20193;-75
2023/05/23 04:08:32;;;;;;;148.70;138.67;;;17.10;99.90;;;;;;4971512;28;20649;-74
2023/05/23 04:11:00;;;;;;;141.07;131.50;;;17.20;99.90;;;;;;4971207;28;20866;-74
2023/05/23 04:13:27;;;;;;;151.87;141.57;;;17.20;99.90;;;;;;4955409;28;20224;-74
2023/05/23 04:15:55;;;;;;;201.93;188.50;;;17.30;99.90;;;;;;4957645;28;20267;-75
2023/05/23 04:18:21;;;;;;;137.47;128.33;;;17.30;99.90;;;;;;4957483;28;20649;-73
2023/05/23 04:20:47;;;;;;;137.33;128.00;;;17.40;99.90;;;;;;4975034;28;20209;-73
2023/05/23 04:23:13;;;;;;;127.77;119.30;;;17.40;99.90;;;;;;4975261;28;20608;-70
2023/05/23 04:25:39;;;;;;;154.77;145.27;;;17.40;99.90;;;;;;4974504;28;20212;-70
2023/05/23 04:28:09;;;;;;;144.57;135.40;;;17.40;99.90;;;;;;4934004;28;20197;-71
2023/05/23 04:30:35;;;;;;;139.33;130.37;;;17.40;99.90;;;;;;4954028;28;20212;-70
2023/05/23 04:33:01;;;;;;;150.13;139.70;;;17.40;99.90;;;;;;4968018;28;20189;-71
2023/05/23 04:35:32;;;;;;;182.00;169.10;;;17.40;99.90;;;;;;4957502;28;20212;-72
2023/05/23 04:37:58;;;;;;;202.53;187.10;;;17.50;99.90;;;;;;4965952;28;20197;-72
2023/05/23 04:40:24;;;;;;;206.20;190.43;;;17.60;99.90;;;;;;4974803;28;20200;-72
2023/05/23 04:42:50;;;;;;;210.50;194.10;;;17.50;99.90;;;;;;4974741;28;20185;-71
2023/05/23 04:45:19;;;;;;;223.47;206.37;;;17.60;99.90;;;;;;4957469;28;20264;-71
2023/05/23 04:47:45;;;;;;;224.37;207.67;;;17.70;99.90;;;;;;4974767;28;20250;-71
2023/05/23 04:50:11;;;;;;;212.70;196.47;;;17.70;99.90;;;;;;4967630;28;20200;-71
2023/05/23 04:52:37;;;;;;;204.77;188.43;;;17.70;99.90;;;;;;4975263;28;20571;-71
2023/05/23 04:55:03;;;;;;;152.93;139.20;;;17.70;99.90;;;;;;4974567;28;20229;-71
2023/05/23 04:57:29;;;;;;;131.53;117.57;;;17.80;99.90;;;;;;4974725;28;20212;-72
2023/05/23 04:59:55;;;;;;;117.30;105.20;;;17.80;99.90;;;;;;4974376;28;20189;-71
2023/05/23 05:02:21;;;;;;;152.17;137.10;;;17.80;99.90;;;;;;4975035;28;20276;-71
2023/05/23 05:04:47;;;;;;;144.07;130.47;;;17.80;99.90;;;;;;4974938;28;20672;-71
2023/05/23 05:07:13;;;;;;;157.70;141.83;;;17.80;99.90;;;;;;4974100;28;20208;-71
2023/05/23 05:09:39;;;;;;;147.53;131.97;;;17.80;99.90;;;;;;4974277;28;20200;-70
2023/05/23 05:12:05;;;;;;;149.53;135.40;;;17.80;99.90;;;;;;4974386;28;20263;-71
2023/05/23 05:14:30;;;;;;;142.00;128.47;;;17.90;99.90;;;;;;4974060;28;20710;-71
2023/05/23 05:16:56;;;;;;;219.17;201.33;;;17.90;99.90;;;;;;4956570;28;20195;-71
2023/05/23 05:19:23;;;;;;;334.70;311.20;;;18.00;99.90;;;;;;4974220;28;20213;-70
2023/05/23 05:21:49;;;;;;;352.57;328.03;;;18.10;99.90;;;;;;4956522;28;20216;-71
2023/05/23 05:24:15;;;;;;;180.63;165.43;;;18.30;99.90;;;;;;4956738;28;20208;-70
2023/05/23 05:26:41;;;;;;;78.25;50.28;;;18.40;99.90;;;;;;4965475;28;20228;-71
2023/05/23 05:29:07;;;;;;;77.10;48.07;;;18.40;99.90;;;;;;4973469;28;20200;-70
2023/05/23 05:31:34;;;;;;;82.53;56.07;;;18.40;99.90;;;;;;4973832;28;20213;-70
2023/05/23 05:34:00;;;;;;;82.00;61.60;;;18.30;99.90;;;;;;4973893;28;20189;-70
2023/05/23 05:36:26;;;;;;;93.67;83.57;;;18.20;99.90;;;;;;4973539;28;20657;-71
2023/05/23 05:38:53;;;;;;;95.03;84.13;;;18.20;99.90;;;;;;4956253;28;20188;-70
2023/05/23 05:41:19;;;;;;;93.97;83.53;;;18.20;99.90;;;;;;4973795;28;20233;-71
2023/05/23 05:43:44;;;;;;;83.53;56.97;;;18.20;99.90;;;;;;4973558;28;20617;-72
2023/05/23 05:46:10;;;;;;;78.97;51.63;;;18.20;99.90;;;;;;4956753;28;20288;-71
2023/05/23 05:48:36;;;;;;;105.67;95.30;;;18.30;99.90;;;;;;4973422;28;20185;-71
2023/05/23 05:51:02;;;;;;;127.95;116.38;;;18.40;99.90;;;;;;4973271;28;20681;-71
2023/05/23 05:53:28;;;;;;;126.80;114.13;;;18.50;99.90;;;;;;4973884;28;20636;-71
2023/05/23 05:55:54;;;;;;;87.32;77.70;;;18.70;99.90;;;;;;4973579;28;20220;-70
2023/05/23 05:58:20;;;;;;;291.35;271.17;;;18.90;99.90;;;;;;4973209;28;20185;-70
2023/05/23 06:00:47;;;;;;;250.57;232.47;;;19.10;99.90;;;;;;4973165;28;20217;-72
2023/05/23 06:03:14;;;;;;;93.13;83.47;;;19.20;99.90;;;;;;4973704;28;20570;-71
2023/05/23 06:05:40;;;;;;;86.10;72.38;;;19.20;99.90;;;;;;4973052;28;20204;-71
2023/05/23 06:08:06;;;;;;;85.15;70.13;;;19.10;99.90;;;;;;4955996;28;20704;-71
2023/05/23 06:10:32;;;;;;;84.60;75.65;;;19.00;99.90;;;;;;4973426;28;20259;-72
2023/05/23 06:12:58;;;;;;;94.25;84.68;;;19.10;99.90;;;;;;4973185;28;20189;-71
2023/05/23 06:15:25;;;;;;;118.80;108.50;;;19.20;99.90;;;;;;4973397;28;20228;-72
2023/05/23 06:17:51;;;;;;;148.70;136.67;;;19.10;99.90;;;;;;4972784;28;20181;-70
2023/05/23 06:20:17;;;;;;;151.48;138.65;;;19.10;99.90;;;;;;4955428;28;20199;-72
2023/05/23 06:22:42;;;;;;;159.25;146.70;;;19.10;99.90;;;;;;4955631;28;20193;-71
2023/05/23 06:25:08;;;;;;;154.32;141.68;;;19.20;99.90;;;;;;4969624;28;20196;-70
2023/05/23 06:27:34;;;;;;;171.07;157.52;;;19.20;99.90;;;;;;4967870;28;20193;-71
2023/05/23 06:30:01;;;;;;;160.57;148.00;;;19.20;99.90;;;;;;4955894;28;20221;-71
2023/05/23 06:32:27;;;;;;;129.23;118.47;;;19.30;99.90;;;;;;4972881;28;20219;-72
2023/05/23 06:34:53;;;;;;;105.95;96.68;;;19.30;99.90;;;;;;4955275;28;20213;-71
2023/05/23 06:37:18;;;;;;;111.40;101.22;;;19.30;99.90;;;;;;4954357;28;20193;-71
2023/05/23 06:39:44;;;;;;;97.70;89.15;;;19.50;99.90;;;;;;4955933;28;20235;-71
2023/05/23 06:42:10;;;;;;;85.63;76.97;;;19.50;99.90;;;;;;4973054;28;20586;-71
2023/05/23 06:44:36;;;;;;;78.65;70.93;;;19.60;99.90;;;;;;4972767;28;20546;-72
2023/05/23 06:47:01;;;;;;;77.30;69.82;;;19.60;99.90;;;;;;4973582;28;20243;-71
2023/05/23 06:49:27;;;;;;;64.13;57.60;;;19.60;99.90;;;;;;4973031;28;20255;-72
2023/05/23 06:51:53;;;;;;;76.13;68.88;;;19.40;99.90;;;;;;4955453;28;20606;-70
2023/05/23 06:54:18;;;;;;;98.47;89.68;;;19.30;99.90;;;;;;4955534;28;20217;-70
2023/05/23 06:56:45;;;;;;;102.15;92.47;;;19.20;99.90;;;;;;4955587;28;20181;-70
2023/05/23 06:59:10;;;;;;;108.15;98.68;;;19.10;99.90;;;;;;4953375;28;20731;-70
2023/05/23 07:01:36;;;;;;;117.85;107.78;;;19.00;99.90;;;;;;4948147;28;20239;-70
2023/05/23 07:04:02;;;;;;;142.93;131.23;;;18.90;99.90;;;;;;4954346;28;20185;-70
2023/05/23 07:06:28;;;;;;;162.00;150.05;;;18.90;99.90;;;;;;4955449;28;20675;-71
2023/05/23 07:08:54;;;;;;;172.70;159.30;;;19.00;99.90;;;;;;4972349;28;20197;-71
2023/05/23 07:11:23;;;;;;;139.25;128.18;;;19.10;99.90;;;;;;4972741;28;20304;-70
2023/05/23 07:13:48;;;;;;;112.85;102.90;;;19.10;99.90;;;;;;4972844;28;20336;-72
2023/05/23 07:16:14;;;;;;;111.57;101.97;;;19.20;99.90;;;;;;4972664;28;20284;-72
2023/05/23 07:18:40;;;;;;;84.30;75.95;;;19.30;99.90;;;;;;4972262;28;20185;-72
2023/05/23 07:21:06;;;;;;;92.10;83.63;;;19.50;99.90;;;;;;4955267;28;20367;-72
2023/05/23 07:23:33;;;;;;;80.18;72.75;;;19.60;99.90;;;;;;4972509;28;20193;-72
2023/05/23 07:25:59;;;;;;;62.95;54.20;;;19.60;99.90;;;;;;4955123;28;20669;-72
2023/05/23 07:28:25;;;;;;;60.88;54.38;;;19.50;99.90;;;;;;4971967;28;20331;-72
2023/05/23 07:30:51;;;;;;;54.83;48.97;;;19.50;99.90;;;;;;4954949;28;20216;-72
2023/05/23 07:33:17;;;;;;;59.38;53.17;;;19.50;99.90;;;;;;4954970;28;20193;-72
2023/05/23 07:35:43;;;;;;;58.72;51.95;;;19.50;99.90;;;;;;4954950;28;20576;-72
2023/05/23 07:38:09;;;;;;;57.83;51.47;;;19.30;99.90;;;;;;4954508;28;20197;-72
2023/05/23 07:40:36;;;;;;;85.60;77.80;;;19.10;99.90;;;;;;4972050;28;20312;-71
2023/05/23 07:43:02;;;;;;;145.25;134.55;;;19.00;99.90;;;;;;4954897;28;20195;-71
2023/05/23 07:45:27;;;;;;;122.35;113.20;;;18.90;99.90;;;;;;4971994;28;20192;-72
2023/05/23 07:47:53;;;;;;;115.80;106.72;;;18.80;99.90;;;;;;4971299;28;20203;-72
2023/05/23 07:50:19;;;;;;;106.35;97.88;;;18.80;99.90;;;;;;4972072;28;20196;-71
2023/05/23 07:52:45;;;;;;;103.13;94.25;;;18.80;99.90;;;;;;4972004;28;20680;-71
2023/05/23 07:55:11;;;;;;;97.40;88.85;;;18.90;99.90;;;;;;4954620;28;20216;-71
2023/05/23 07:57:37;;;;;;;104.88;96.38;;;18.90;99.90;;;;;;4971557;28;20239;-71
2023/05/23 08:00:04;;;;;;;100.22;92.43;;;19.00;99.90;;;;;;4971903;28;20196;-70
2023/05/23 08:02:30;;;;;;;100.47;92.93;;;19.00;99.90;;;;;;4954559;28;20220;-71
2023/05/23 08:04:55;;;;;;;84.80;77.95;;;19.10;99.90;;;;;;4971858;28;20531;-71
2023/05/23 08:07:21;;;;;;;60.92;55.17;;;19.20;99.90;;;;;;4954288;28;20268;-72
2023/05/23 08:09:47;;;;;;;43.08;38.53;;;19.30;99.90;;;;;;4971638;28;20185;-72
2023/05/23 08:12:13;;;;;;;42.85;38.28;;;19.40;99.90;;;;;;4971708;28;20727;-72
2023/05/23 08:14:39;;;;;;;43.17;38.58;;;19.30;99.90;;;;;;4954542;28;20250;-72
2023/05/23 08:17:05;;;;;;;42.25;35.97;;;19.40;99.90;;;;;;4946308;28;20290;-71
2023/05/23 08:19:31;;;;;;;45.35;35.90;;;19.40;99.90;;;;;;4973693;28;20192;-72
2023/05/23 08:21:56;;;;;;;40.58;34.83;;;19.40;99.90;;;;;;4955239;28;20896;-71
2023/05/23 08:24:22;;;;;;;40.88;36.45;;;19.40;99.90;;;;;;4954480;28;20562;-71
2023/05/23 08:26:49;;;;;;;40.35;33.85;;;19.40;99.90;;;;;;4954420;28;20192;-72
2023/05/23 08:29:15;;;;;;;51.28;41.63;;;19.30;99.90;;;;;;4971509;28;20185;-72
2023/05/23 08:31:40;;;;;;;36.33;29.87;;;19.30;99.90;;;;;;4971569;28;20217;-72
2023/05/23 08:34:06;;;;;;;33.17;29.65;;;19.40;99.90;;;;;;4954241;28;20197;-72
2023/05/23 08:36:35;;;;;;;36.90;29.20;;;19.50;99.90;;;;;;4971687;28;20211;-71
2023/05/23 08:39:02;;;;;;;37.80;29.75;;;19.50;99.90;;;;;;4971226;28;20641;-72
2023/05/23 08:41:29;;;;;;;35.35;30.15;;;19.50;99.90;;;;;;4971535;28;20213;-72
2023/05/23 08:43:56;;;;;;;33.40;29.65;;;19.40;99.90;;;;;;4954289;28;20232;-71
2023/05/23 08:46:22;;;;;;;39.90;35.85;;;19.50;99.90;;;;;;4955118;28;20181;-71
2023/05/23 08:48:53;;;;;;;41.83;37.83;;;19.50;99.90;;;;;;4958036;28;20209;-72
2023/05/23 08:51:25;;;;;;;40.03;36.15;;;19.60;99.90;;;;;;4971134;28;20736;-71
2023/05/23 08:53:52;;;;;;;31.35;27.95;;;19.60;99.90;;;;;;4945806;28;20194;-71
2023/05/23 08:56:19;;;;;;;33.47;30.13;;;19.40;99.90;;;;;;4953726;28;20276;-71
2023/05/23 08:58:46;;;;;;;34.85;31.42;;;19.40;99.90;;;;;;4970718;28;20665;-71
2023/05/23 09:01:13;;;;;;;34.67;31.13;;;19.50;99.90;;;;;;4965845;28;20629;-73
2023/05/23 09:03:41;;;;;;;26.40;23.05;;;19.60;99.90;;;;;;4957493;28;20611;-73
2023/05/23 09:06:08;;;;;;;27.15;24.15;;;19.60;99.90;;;;;;4974644;28;20189;-72
2023/05/23 09:08:34;;;;;;;35.73;32.47;;;19.70;99.90;;;;;;4973936;28;20189;-73
2023/05/23 09:11:01;;;;;;;57.15;52.92;;;19.80;99.90;;;;;;4974031;28;20243;-72
2023/05/23 09:13:31;;;;;;;46.25;42.60;;;20.00;99.90;;;;;;4995970;23;20240;-73
2023/05/23 09:16:08;;;;;;;38.40;35.22;;;20.10;99.90;;;;;;4973446;28;20274;-73
2023/05/23 09:18:35;;;;;;;36.38;33.22;;;20.10;99.90;;;;;;4988853;28;20223;-73
2023/05/23 09:21:02;;;;;;;31.10;28.08;;;20.10;99.90;;;;;;4994079;28;20558;-73
2023/05/23 09:23:32;;;;;;;31.02;28.13;;;20.10;99.90;;;;;;4973700;28;20308;-73
2023/05/23 09:26:04;;;;;;;31.67;28.73;;;20.30;99.90;;;;;;4974376;28;20192;-73
2023/05/23 09:28:34;;;;;;;42.55;39.22;;;20.60;99.90;;;;;;4974221;28;20200;-73
2023/05/23 09:31:05;;;;;;;47.42;43.63;;;20.70;99.90;;;;;;4957234;28;20189;-73
2023/05/23 09:33:38;;;;;;;38.67;35.50;;;20.60;99.90;;;;;;4974291;28;20271;-72
2023/05/23 09:36:05;;;;;;;40.75;37.53;;;20.40;99.90;;;;;;4971484;28;20269;-73
2023/05/23 09:38:31;;;;;;;39.25;36.25;;;20.30;99.90;;;;;;4962513;28;20330;-73
2023/05/23 09:40:58;;;;;;;42.10;38.17;;;20.20;99.90;;;;;;4955362;28;20192;-73
2023/05/23 09:43:24;;;;;;;38.85;35.78;;;20.20;99.90;;;;;;4957090;28;20216;-72
2023/05/23 09:45:51;;;;;;;34.97;32.15;;;20.40;99.90;;;;;;4974026;28;20197;-73
2023/05/23 09:48:16;;;;;;;32.60;29.77;;;20.30;99.90;;;;;;4973619;28;20193;-72
2023/05/23 09:50:45;;;;;;;32.80;30.08;;;20.60;99.90;;;;;;4956590;28;20189;-73
2023/05/23 09:53:11;;;;;;;41.22;37.92;;;21.50;99.90;;;;;;4956567;28;20193;-73
2023/05/23 09:55:39;;;;;;;103.32;97.18;;;22.00;99.90;;;;;;4974214;28;20293;-73
2023/05/23 09:58:05;;;;;;;70.68;65.82;;;22.00;99.90;;;;;;4974516;28;20452;-73
2023/05/23 10:00:31;;;;;;;106.68;99.78;;;21.70;99.90;;;;;;4958020;28;20192;-73
2023/05/23 10:03:13;;;;;;;42.35;38.90;;;21.60;99.90;;;;;;4974371;28;20609;-73
2023/05/23 10:05:47;;;;;;;68.30;64.00;;;21.40;99.90;;;;;;4956453;28;20193;-73
2023/05/23 10:08:44;;;;;;;79.82;74.55;;;21.50;99.90;;;;;;4952086;29;20194;-73
2023/05/23 10:11:13;;;;;;;29.02;26.13;;;21.80;99.90;;;;;;4965735;28;20209;-73
2023/05/23 10:13:52;;;;;;;24.05;21.23;;;22.50;99.90;;;;;;4956182;28;20307;-73
2023/05/23 10:16:37;;;;;;;28.77;26.35;;;22.40;99.90;;;;;;4973216;28;20220;-73
2023/05/23 10:19:16;;;;;;;26.40;23.95;;;22.20;99.90;;;;;;4955666;28;21384;-73
2023/05/23 10:21:48;;;;;;;22.35;20.38;;;21.90;99.90;;;;;;4973436;28;20237;-73
2023/05/23 10:24:15;;;;;;;25.85;23.67;;;21.50;99.90;;;;;;4973498;28;20303;-73
2023/05/23 10:26:42;;;;;;;30.35;27.75;;;21.30;99.90;;;;;;4973213;28;20216;-73
2023/05/23 10:29:08;;;;;;;31.75;29.45;;;21.10;99.90;;;;;;4972693;28;20197;-73
2023/05/23 10:31:35;;;;;;;27.38;25.08;;;21.40;99.90;;;;;;4973097;28;20181;-73
2023/05/23 10:34:31;;;;;;;18.00;16.48;;;22.00;99.90;;;;;;4955621;28;20630;-72
2023/05/23 10:37:05;;;;;;;40.67;37.42;;;22.40;99.90;;;;;;4962816;28;20347;-73
2023/05/23 10:39:49;;;;;;;48.53;45.22;;;22.50;99.90;;;;;;4973093;28;20212;-73
2023/05/23 10:43:00;;;;;;;42.88;39.78;;;23.00;99.90;;;;;;4972952;28;20534;-73
2023/05/23 10:45:26;;;;;;;33.28;30.65;;;23.60;99.90;;;;;;4972771;28;20220;-73
2023/05/23 10:47:52;;;;;;;16.00;14.48;;;24.30;99.90;;;;;;4972357;28;20201;-73
2023/05/23 10:50:35;;;;;;;20.00;18.00;;;24.90;99.90;;;;;;4972777;28;20200;-73
2023/05/23 10:53:05;;;;;;;21.15;19.30;;;24.70;99.90;;;;;;4972739;28;20196;-73
2023/05/23 10:55:35;;;;;;;20.95;19.25;;;24.30;99.90;;;;;;4988118;28;20268;-73
2023/05/23 10:58:20;;;;;;;19.30;17.55;;;24.40;99.90;;;;;;4973778;28;20197;-74
2023/05/23 11:00:58;;;;;;;21.50;19.80;;;24.10;99.90;;;;;;4957565;28;20629;-74
2023/05/23 11:03:32;;;;;;;31.45;28.33;;;24.00;99.90;;;;;;4972719;28;20271;-73
2023/05/23 11:05:58;;;;;;;26.63;24.08;;;23.20;99.90;;;;;;4959946;28;20557;-73
2023/05/23 11:08:24;;;;;;;28.17;24.83;;;22.90;99.90;;;;;;4944824;28;20665;-73
2023/05/23 11:11:03;;;;;;;24.83;22.42;;;23.70;99.90;;;;;;4972179;28;20189;-73
2023/05/23 11:13:48;;;;;;;24.67;22.33;;;23.80;99.90;;;;;;4963846;28;20279;-73
2023/05/23 11:16:28;;;;;;;21.10;19.10;;;23.50;99.90;;;;;;4971869;28;20299;-73
2023/05/23 11:19:19;;;;;;;18.95;17.20;;;23.10;99.90;;;;;;4954536;28;20189;-73
2023/05/23 11:21:48;;;;;;;18.88;17.17;;;22.80;99.90;;;;;;4963950;28;20185;-73
2023/05/23 11:24:15;;;;;;;19.95;18.05;;;22.70;99.90;;;;;;4967355;28;20326;-73
2023/05/23 11:26:59;;;;;;;19.95;18.15;;;22.60;99.90;;;;;;4968587;28;20276;-73
2023/05/23 11:29:27;;;;;;;18.80;17.02;;;22.80;99.90;;;;;;4971888;28;20193;-73
2023/05/23 11:31:53;;;;;;;21.10;19.08;;;23.10;99.90;;;;;;4972332;28;20196;-73
2023/05/23 11:34:20;;;;;;;20.13;18.58;;;23.30;99.90;;;;;;4971942;28;20213;-73
2023/05/23 11:36:46;;;;;;;20.27;18.58;;;23.30;99.90;;;;;;4954411;28;20185;-74
2023/05/23 11:39:14;;;;;;;19.40;17.77;;;23.10;99.90;;;;;;4971767;28;20211;-73
2023/05/23 11:41:42;;;;;;;18.88;17.27;;;22.80;99.90;;;;;;4972726;28;20184;-73
2023/05/23 11:44:12;;;;;;;19.40;17.80;;;22.90;99.90;;;;;;4972900;28;20283;-73
2023/05/23 11:46:39;;;;;;;19.13;17.35;;;22.90;99.90;;;;;;4972328;28;20649;-73
2023/05/23 11:49:11;;;;;;;15.45;13.95;;;23.40;99.90;;;;;;4971843;28;20245;-73
2023/05/23 11:51:37;;;;;;;15.10;13.75;;;23.80;99.90;;;;;;4954287;28;20197;-72
2023/05/23 11:54:02;;;;;;;13.02;11.88;;;24.30;99.90;;;;;;4971517;28;20207;-73
2023/05/23 11:56:28;;;;;;;12.07;10.98;;;24.50;99.90;;;;;;4971821;28;20196;-73
2023/05/23 11:58:56;;;;;;;13.35;12.05;;;24.60;99.90;;;;;;4970707;28;20208;-73
2023/05/23 12:01:30;;;;;;;12.63;11.32;;;24.40;99.90;;;;;;4955976;28;20184;-73
2023/05/23 12:03:56;;;;;;;12.70;11.50;;;24.60;99.90;;;;;;4967471;28;20212;-73
2023/05/23 12:06:24;;;;;;;17.50;16.10;;;25.40;99.90;;;;;;4971344;28;20192;-73
2023/05/23 12:08:51;;;;;;;20.88;19.48;;;26.10;99.90;;;;;;4953801;28;20571;-73
2023/05/23 12:11:17;;;;;;;12.70;11.43;;;26.20;99.90;;;;;;4954389;28;20193;-73
2023/05/23 12:13:43;;;;;;;9.77;9.00;;;26.50;99.90;;;;;;4971413;28;20293;-73
2023/05/23 12:16:16;;;;;;;11.25;10.20;;;27.10;99.50;;;;;;4971414;28;20251;-73
2023/05/23 12:18:42;;;;;;;14.20;12.80;;;26.70;99.70;;;;;;4971073;28;20181;-73
2023/05/23 12:21:08;;;;;;;19.15;17.20;;;26.00;99.50;;;;;;4971410;28;20259;-73
2023/05/23 12:23:35;;;;;;;17.65;15.98;;;24.80;99.90;;;;;;4954152;28;20247;-73
2023/05/23 12:26:05;;;;;;;16.42;15.07;;;24.50;99.90;;;;;;4954188;28;20195;-72
2023/05/23 12:28:36;;;;;;;11.20;10.10;;;25.40;99.90;;;;;;4971394;28;20255;-73
2023/05/23 12:31:12;;;;;;;11.60;10.70;;;26.20;99.90;;;;;;4971625;28;20189;-73
2023/05/23 12:33:40;;;;;;;12.65;11.55;;;27.10;98.60;;;;;;4971628;28;20213;-73
2023/05/23 12:36:06;;;;;;;12.32;11.32;;;27.30;96.20;;;;;;4957528;28;20274;-73
2023/05/23 12:38:37;;;;;;;18.42;17.17;;;26.80;96.90;;;;;;4960395;28;20230;-72
2023/05/23 12:41:10;;;;;;;11.10;10.27;;;26.30;96.10;;;;;;4985363;28;20204;-72
2023/05/23 12:43:39;;;;;;;11.35;10.55;;;25.10;97.90;;;;;;4967637;28;20240;-72
2023/05/23 12:46:09;;;;;;;11.20;10.23;;;24.40;99.90;;;;;;4973945;28;20197;-73
2023/05/23 12:48:34;;;;;;;15.75;14.45;;;24.10;99.90;;;;;;4957161;28;20192;-73
2023/05/23 12:51:01;;;;;;;15.40;14.30;;;24.20;99.90;;;;;;4974798;28;20189;-73
2023/05/23 12:53:28;;;;;;;16.67;15.48;;;24.90;99.90;;;;;;4957024;28;20308;-72
2023/05/23 12:55:53;;;;;;;10.93;10.02;;;25.90;99.90;;;;;;4966503;28;20205;-73
2023/05/23 12:58:19;;;;;;;10.57;9.73;;;26.50;98.60;;;;;;4974066;28;20185;-73
2023/05/23 13:00:45;;;;;;;11.98;9.45;;;26.70;96.40;;;;;;4974281;28;20228;-73
2023/05/23 13:03:11;;;;;;;11.50;10.45;;;27.00;96.20;;;;;;4974453;28;20283;-72
2023/05/23 13:05:37;;;;;;;31.10;29.15;;;27.50;95.70;;;;;;4974666;28;20193;-73
2023/05/23 13:08:03;;;;;;;22.42;20.98;;;27.70;94.50;;;;;;4973821;28;20353;-73
2023/05/23 13:10:29;;;;;;;15.75;14.70;;;26.70;95.60;;;;;;4974587;28;20681;-72
2023/05/23 13:12:55;;;;;;;9.18;8.48;;;25.70;96.70;;;;;;4974133;28;20192;-72
2023/05/23 13:15:20;;;;;;;10.93;9.93;;;24.80;99.10;;;;;;4973893;28;20220;-72
2023/05/23 13:17:47;;;;;;;9.00;8.30;;;24.20;99.20;;;;;;4956468;28;20218;-72
2023/05/23 13:20:13;;;;;;;11.00;10.02;;;23.80;99.90;;;;;;4957201;28;20181;-72
2023/05/23 13:22:39;;;;;;;13.23;12.27;;;23.50;99.90;;;;;;4956833;28;20200;-73
2023/05/23 13:25:07;;;;;;;10.15;9.25;;;23.40;99.90;;;;;;4974311;28;20209;-72
2023/05/23 13:27:33;;;;;;;10.52;9.73;;;23.40;99.90;;;;;;4973698;28;20701;-72
2023/05/23 13:29:59;;;;;;;9.68;8.88;;;23.40;99.90;;;;;;4973847;28;20191;-72
2023/05/23 13:32:25;;;;;;;13.30;12.32;;;24.00;99.90;;;;;;4951584;29;20185;-73
2023/05/23 13:34:51;;;;;;;12.80;11.95;;;24.90;99.90;;;;;;4971543;28;20235;-73
2023/05/23 13:37:17;;;;;;;12.20;11.32;;;25.00;99.10;;;;;;4973793;28;20197;-73
2023/05/23 13:39:43;;;;;;;15.00;14.05;;;24.50;99.20;;;;;;4956937;28;20193;-73
2023/05/23 13:42:09;;;;;;;11.45;10.57;;;23.80;99.90;;;;;;4973905;28;20200;-73
2023/05/23 13:44:35;;;;;;;10.50;9.70;;;23.30;99.90;;;;;;4973354;28;20213;-73
2023/05/23 13:47:12;;;;;;;11.85;10.93;;;23.10;99.90;;;;;;4972945;28;20204;-72
2023/05/23 13:49:38;;;;;;;11.75;10.90;;;23.20;99.90;;;;;;4973597;28;20544;-72
2023/05/23 13:52:04;;;;;;;16.52;15.18;;;23.30;99.90;;;;;;4973511;28;20197;-72
2023/05/23 13:54:30;;;;;;;15.75;14.48;;;23.30;99.90;;;;;;4956055;28;20220;-73
2023/05/23 13:56:56;;;;;;;14.18;12.98;;;23.00;99.90;;;;;;4956285;28;20566;-73
2023/05/23 13:59:26;;;;;;;11.88;10.90;;;22.90;99.90;;;;;;4973374;28;20185;-73
2023/05/23 14:01:52;;;;;;;10.73;9.90;;;22.80;99.90;;;;;;4973538;28;20264;-73
2023/05/23 14:04:18;;;;;;;10.85;10.15;;;22.80;99.90;;;;;;4973413;28;20209;-73
2023/05/23 14:06:44;;;;;;;11.15;10.38;;;22.80;99.90;;;;;;4956098;28;20204;-73
2023/05/23 14:09:11;;;;;;;11.70;10.95;;;22.70;99.90;;;;;;4973085;28;20267;-73
2023/05/23 14:11:37;;;;;;;10.30;9.48;;;22.90;99.90;;;;;;4956431;28;20197;-73
2023/05/23 14:14:03;;;;;;;8.43;7.93;;;23.90;99.90;;;;;;4972817;28;20311;-73
2023/05/23 14:16:29;;;;;;;9.35;8.48;;;24.20;99.90;;;;;;4973425;28;20189;-73
2023/05/23 14:18:55;;;;;;;7.90;7.38;;;24.00;99.90;;;;;;4955667;28;20614;-73
2023/05/23 14:21:21;;;;;;;7.40;6.90;;;24.00;99.90;;;;;;4973076;28;20272;-73
2023/05/23 14:23:47;;;;;;;7.50;6.85;;;23.90;99.90;;;;;;4976113;28;20209;-73
2023/05/23 14:26:12;;;;;;;7.47;6.97;;;23.50;99.90;;;;;;4975216;28;20193;-73
2023/05/23 14:28:38;;;;;;;8.70;8.02;;;23.30;99.90;;;;;;4971370;28;20204;-73
2023/05/23 14:31:04;;;;;;;8.18;7.57;;;23.40;99.90;;;;;;4972984;28;20185;-73
2023/05/23 14:33:30;;;;;;;9.73;8.85;;;23.60;99.90;;;;;;4959682;28;20511;-72
2023/05/23 14:35:56;;;;;;;7.43;6.93;;;24.10;99.90;;;;;;4964252;28;20241;-73
2023/05/23 14:38:22;;;;;;;12.43;11.52;;;24.10;99.90;;;;;;4970962;28;20696;-73
2023/05/23 14:40:48;;;;;;;10.00;9.10;;;24.00;99.90;;;;;;4972646;28;20188;-73
2023/05/23 14:43:14;;;;;;;9.05;8.25;;;23.90;99.90;;;;;;4972653;28;20195;-73
2023/05/23 14:45:41;;;;;;;17.17;14.82;;;23.60;99.90;;;;;;4972261;28;20185;-73
2023/05/23 14:48:08;;;;;;;17.10;14.70;;;23.50;99.90;;;;;;4972153;28;20283;-72
2023/05/23 14:50:34;;;;;;;13.27;12.07;;;23.40;99.90;;;;;;4972826;28;20613;-73
2023/05/23 14:53:00;;;;;;;12.35;11.02;;;23.50;99.90;;;;;;4972316;28;20203;-73
2023/05/23 14:55:26;;;;;;;9.40;8.40;;;23.60;99.90;;;;;;4972176;28;20311;-73
2023/05/23 14:57:52;;;;;;;8.10;7.60;;;23.30;99.90;;;;;;4971092;28;20268;-73
2023/05/23 15:00:18;;;;;;;7.97;7.43;;;23.10;99.90;;;;;;4972317;28;20197;-73
2023/05/23 15:02:45;;;;;;;9.02;8.23;;;23.00;99.90;;;;;;4972236;28;20204;-73
2023/05/23 15:05:12;;;;;;;9.70;9.10;;;23.00;99.90;;;;;;4955057;28;20219;-72
2023/05/23 15:07:38;;;;;;;8.02;7.53;;;23.00;99.90;;;;;;4967846;28;20180;-73
2023/05/23 15:10:06;;;;;;;8.10;7.63;;;22.90;99.90;;;;;;4972079;28;20193;-73
2023/05/23 15:12:32;;;;;;;7.57;7.13;;;23.00;99.90;;;;;;4955068;28;20193;-72
2023/05/23 15:15:02;;;;;;;6.63;6.15;;;23.60;99.90;;;;;;4985120;23;20258;-71
2023/05/23 15:17:32;;;;;;;8.07;7.47;;;24.00;99.60;;;;;;4990969;28;20635;-71
2023/05/23 15:19:58;;;;;;;12.10;11.40;;;24.30;99.20;;;;;;4991340;28;20192;-71
2023/05/23 15:22:24;;;;;;;11.65;10.95;;;24.10;99.20;;;;;;4991850;28;20191;-71
2023/05/23 15:24:50;;;;;;;11.07;10.43;;;23.90;99.60;;;;;;4963644;28;20221;-71